sensor_id;sensor_type;location;lat;lon;timestamp;P1;durP1;ratioP1;P2;durP2;ratioP2
20080;SDS011;10200;49.232;9.222;2022-12-24T00:00:31;4.93;;;1.60;;
20080;SDS011;10200;49.232;9.222;2022-12-24T00:02:57;1.27;;;1.17;;
20080;SDS011;10200;49.232;9.222;2022-12-24T00:05:23;4.10;;;1.70;;
20080;SDS011;10200;49.232;9.222;2022-12-24T00:07:49;2.43;;;1.53;;
20080;SDS011;10200;49.232;9.222;2022-12-24T00:10:15;4.20;;;1.50;;
20080;SDS011;10200;49.232;9.222;2022-12-24T00:12:41;8.53;;;1.97;;
20080;SDS011;10200;49.232;9.222;2022-12-24T00:15:06;6.87;;;1.53;;
20080;SDS011;10200;49.232;9.222;2022-12-24T00:17:32;5.77;;;1.53;;
20080;SDS011;10200;49.232;9.222;2022-12-24T00:19:58;5.63;;;1.47;;
20080;SDS011;10200;49.232;9.222;2022-12-24T00:22:24;3.63;;;1.20;;
20080;SDS011;10200;49.232;9.222;2022-12-24T00:24:49;6.40;;;1.60;;
20080;SDS011;10200;49.232;9.222;2022-12-24T00:27:15;2.07;;;1.20;;
20080;SDS011;10200;49.232;9.222;2022-12-24T00:29:40;3.33;;;1.50;;
20080;SDS011;10200;49.232;9.222;2022-12-24T00:32:06;4.33;;;0.70;;
20080;SDS011;10200;49.232;9.222;2022-12-24T00:34:34;3.03;;;1.20;;
20080;SDS011;10200;49.232;9.222;2022-12-24T00:37:00;3.37;;;1.10;;
20080;SDS011;10200;49.232;9.222;2022-12-24T00:39:26;6.27;;;1.17;;
20080;SDS011;10200;49.232;9.222;2022-12-24T00:41:51;4.93;;;1.33;;
20080;SDS011;10200;49.232;9.222;2022-12-24T00:44:17;5.37;;;1.10;;
20080;SDS011;10200;49.232;9.222;2022-12-24T00:46:43;6.67;;;1.10;;
20080;SDS011;10200;49.232;9.222;2022-12-24T00:49:08;3.37;;;1.40;;
20080;SDS011;10200;49.232;9.222;2022-12-24T00:51:36;2.57;;;1.30;;
20080;SDS011;10200;49.232;9.222;2022-12-24T00:54:02;4.73;;;1.33;;
20080;SDS011;10200;49.232;9.222;2022-12-24T00:56:28;3.47;;;1.13;;
20080;SDS011;10200;49.232;9.222;2022-12-24T00:58:53;7.90;;;1.60;;
20080;SDS011;10200;49.232;9.222;2022-12-24T01:01:21;12.83;;;2.07;;
20080;SDS011;10200;49.232;9.222;2022-12-24T01:03:47;6.10;;;1.80;;
20080;SDS011;10200;49.232;9.222;2022-12-24T01:06:16;6.67;;;1.70;;
20080;SDS011;10200;49.232;9.222;2022-12-24T01:08:43;10.53;;;1.67;;
20080;SDS011;10200;49.232;9.222;2022-12-24T01:11:10;2.77;;;1.03;;
20080;SDS011;10200;49.232;9.222;2022-12-24T01:13:37;9.50;;;1.77;;
20080;SDS011;10200;49.232;9.222;2022-12-24T01:16:10;6.10;;;1.50;;
20080;SDS011;10200;49.232;9.222;2022-12-24T01:18:38;5.00;;;1.43;;
20080;SDS011;10200;49.232;9.222;2022-12-24T01:21:03;6.13;;;1.80;;
20080;SDS011;10200;49.232;9.222;2022-12-24T01:23:29;4.60;;;1.20;;
20080;SDS011;10200;49.232;9.222;2022-12-24T01:25:58;5.90;;;1.70;;
20080;SDS011;10200;49.232;9.222;2022-12-24T01:28:25;7.73;;;2.17;;
20080;SDS011;10200;49.232;9.222;2022-12-24T01:30:51;3.43;;;1.00;;
20080;SDS011;10200;49.232;9.222;2022-12-24T01:33:16;2.43;;;1.13;;
20080;SDS011;10200;49.232;9.222;2022-12-24T01:35:42;8.73;;;1.80;;
20080;SDS011;10200;49.232;9.222;2022-12-24T01:38:08;5.80;;;1.67;;
20080;SDS011;10200;49.232;9.222;2022-12-24T01:40:36;3.80;;;1.50;;
20080;SDS011;10200;49.232;9.222;2022-12-24T01:43:23;6.77;;;1.90;;
20080;SDS011;10200;49.232;9.222;2022-12-24T01:45:56;5.00;;;1.30;;
20080;SDS011;10200;49.232;9.222;2022-12-24T01:51:36;4.17;;;1.60;;
20080;SDS011;10200;49.232;9.222;2022-12-24T01:54:07;5.20;;;1.60;;
20080;SDS011;10200;49.232;9.222;2022-12-24T01:57:06;4.33;;;1.77;;
20080;SDS011;10200;49.232;9.222;2022-12-24T01:59:37;7.20;;;2.17;;
20080;SDS011;10200;49.232;9.222;2022-12-24T02:02:04;4.23;;;1.80;;
20080;SDS011;10200;49.232;9.222;2022-12-24T02:04:39;4.90;;;1.70;;
20080;SDS011;10200;49.232;9.222;2022-12-24T02:07:06;7.40;;;2.07;;
20080;SDS011;10200;49.232;9.222;2022-12-24T02:09:32;4.83;;;2.00;;
20080;SDS011;10200;49.232;9.222;2022-12-24T02:11:59;4.87;;;1.73;;
20080;SDS011;10200;49.232;9.222;2022-12-24T02:14:26;4.83;;;1.23;;
20080;SDS011;10200;49.232;9.222;2022-12-24T02:16:59;7.77;;;1.63;;
20080;SDS011;10200;49.232;9.222;2022-12-24T02:22:10;2.93;;;1.50;;
20080;SDS011;10200;49.232;9.222;2022-12-24T02:30:34;5.53;;;1.53;;
20080;SDS011;10200;49.232;9.222;2022-12-24T02:35:41;6.23;;;1.53;;
20080;SDS011;10200;49.232;9.222;2022-12-24T02:40:47;5.83;;;1.57;;
20080;SDS011;10200;49.232;9.222;2022-12-24T02:43:19;7.30;;;1.80;;
20080;SDS011;10200;49.232;9.222;2022-12-24T02:45:50;9.10;;;1.60;;
20080;SDS011;10200;49.232;9.222;2022-12-24T02:48:18;4.83;;;1.40;;
20080;SDS011;10200;49.232;9.222;2022-12-24T02:50:56;6.33;;;1.17;;
20080;SDS011;10200;49.232;9.222;2022-12-24T02:53:27;5.67;;;2.03;;
20080;SDS011;10200;49.232;9.222;2022-12-24T02:55:58;7.67;;;1.70;;
20080;SDS011;10200;49.232;9.222;2022-12-24T03:06:49;4.83;;;1.13;;
20080;SDS011;10200;49.232;9.222;2022-12-24T03:11:45;7.13;;;1.60;;
20080;SDS011;10200;49.232;9.222;2022-12-24T03:14:17;6.17;;;1.60;;
20080;SDS011;10200;49.232;9.222;2022-12-24T03:16:44;4.10;;;1.33;;
20080;SDS011;10200;49.232;9.222;2022-12-24T03:19:10;5.23;;;1.43;;
20080;SDS011;10200;49.232;9.222;2022-12-24T03:21:37;7.03;;;1.67;;
20080;SDS011;10200;49.232;9.222;2022-12-24T03:24:06;10.87;;;1.60;;
20080;SDS011;10200;49.232;9.222;2022-12-24T03:26:34;6.73;;;1.50;;
20080;SDS011;10200;49.232;9.222;2022-12-24T03:29:02;5.93;;;1.67;;
20080;SDS011;10200;49.232;9.222;2022-12-24T03:34:10;7.10;;;1.80;;
20080;SDS011;10200;49.232;9.222;2022-12-24T03:36:37;7.13;;;1.80;;
20080;SDS011;10200;49.232;9.222;2022-12-24T03:39:03;10.03;;;1.50;;
20080;SDS011;10200;49.232;9.222;2022-12-24T03:41:29;7.53;;;2.17;;
20080;SDS011;10200;49.232;9.222;2022-12-24T03:43:55;6.17;;;1.50;;
20080;SDS011;10200;49.232;9.222;2022-12-24T03:46:20;8.07;;;1.97;;
20080;SDS011;10200;49.232;9.222;2022-12-24T03:48:46;7.80;;;1.50;;
20080;SDS011;10200;49.232;9.222;2022-12-24T03:51:19;3.70;;;1.97;;
20080;SDS011;10200;49.232;9.222;2022-12-24T03:53:46;9.73;;;1.43;;
20080;SDS011;10200;49.232;9.222;2022-12-24T03:56:11;4.03;;;1.30;;
20080;SDS011;10200;49.232;9.222;2022-12-24T03:58:37;6.63;;;1.83;;
20080;SDS011;10200;49.232;9.222;2022-12-24T04:01:03;7.90;;;1.73;;
20080;SDS011;10200;49.232;9.222;2022-12-24T04:03:28;5.77;;;1.50;;
20080;SDS011;10200;49.232;9.222;2022-12-24T04:06:08;8.30;;;1.23;;
20080;SDS011;10200;49.232;9.222;2022-12-24T04:08:35;5.23;;;1.37;;
20080;SDS011;10200;49.232;9.222;2022-12-24T04:11:02;5.77;;;1.70;;
20080;SDS011;10200;49.232;9.222;2022-12-24T04:13:28;5.10;;;1.83;;
20080;SDS011;10200;49.232;9.222;2022-12-24T04:15:58;12.03;;;2.00;;
20080;SDS011;10200;49.232;9.222;2022-12-24T04:18:25;10.23;;;1.87;;
20080;SDS011;10200;49.232;9.222;2022-12-24T04:20:51;3.70;;;1.20;;
20080;SDS011;10200;49.232;9.222;2022-12-24T04:23:16;6.47;;;1.77;;
20080;SDS011;10200;49.232;9.222;2022-12-24T04:25:42;5.33;;;1.60;;
20080;SDS011;10200;49.232;9.222;2022-12-24T04:28:08;3.77;;;1.17;;
20080;SDS011;10200;49.232;9.222;2022-12-24T04:30:33;6.97;;;1.83;;
20080;SDS011;10200;49.232;9.222;2022-12-24T04:32:59;5.57;;;1.30;;
20080;SDS011;10200;49.232;9.222;2022-12-24T04:35:24;7.80;;;2.13;;
20080;SDS011;10200;49.232;9.222;2022-12-24T04:37:50;6.77;;;2.00;;
20080;SDS011;10200;49.232;9.222;2022-12-24T04:40:15;8.30;;;1.77;;
20080;SDS011;10200;49.232;9.222;2022-12-24T04:42:41;4.77;;;1.50;;
20080;SDS011;10200;49.232;9.222;2022-12-24T04:45:07;6.00;;;1.60;;
20080;SDS011;10200;49.232;9.222;2022-12-24T04:47:32;10.87;;;2.27;;
20080;SDS011;10200;49.232;9.222;2022-12-24T04:49:58;6.90;;;2.13;;
20080;SDS011;10200;49.232;9.222;2022-12-24T04:52:25;8.23;;;1.97;;
20080;SDS011;10200;49.232;9.222;2022-12-24T04:54:51;10.77;;;2.47;;
20080;SDS011;10200;49.232;9.222;2022-12-24T04:57:16;9.50;;;1.80;;
20080;SDS011;10200;49.232;9.222;2022-12-24T04:59:42;11.87;;;2.63;;
20080;SDS011;10200;49.232;9.222;2022-12-24T05:02:08;7.70;;;2.10;;
20080;SDS011;10200;49.232;9.222;2022-12-24T05:04:34;11.93;;;3.23;;
20080;SDS011;10200;49.232;9.222;2022-12-24T05:06:59;6.70;;;1.83;;
20080;SDS011;10200;49.232;9.222;2022-12-24T05:09:25;8.63;;;1.97;;
20080;SDS011;10200;49.232;9.222;2022-12-24T05:11:50;10.90;;;2.63;;
20080;SDS011;10200;49.232;9.222;2022-12-24T05:14:16;6.93;;;2.50;;
20080;SDS011;10200;49.232;9.222;2022-12-24T05:16:41;10.97;;;2.60;;
20080;SDS011;10200;49.232;9.222;2022-12-24T05:19:07;12.67;;;2.70;;
20080;SDS011;10200;49.232;9.222;2022-12-24T05:21:33;10.53;;;2.10;;
20080;SDS011;10200;49.232;9.222;2022-12-24T05:23:59;8.93;;;2.13;;
20080;SDS011;10200;49.232;9.222;2022-12-24T05:26:56;9.30;;;1.50;;
20080;SDS011;10200;49.232;9.222;2022-12-24T05:29:23;12.07;;;3.37;;
20080;SDS011;10200;49.232;9.222;2022-12-24T05:31:49;9.47;;;2.37;;
20080;SDS011;10200;49.232;9.222;2022-12-24T05:34:14;14.40;;;2.50;;
20080;SDS011;10200;49.232;9.222;2022-12-24T05:36:40;6.30;;;1.83;;
20080;SDS011;10200;49.232;9.222;2022-12-24T05:39:07;15.03;;;1.90;;
20080;SDS011;10200;49.232;9.222;2022-12-24T05:41:34;11.97;;;1.97;;
20080;SDS011;10200;49.232;9.222;2022-12-24T05:43:59;15.63;;;2.87;;
20080;SDS011;10200;49.232;9.222;2022-12-24T05:46:25;12.47;;;3.10;;
20080;SDS011;10200;49.232;9.222;2022-12-24T05:48:51;14.67;;;2.47;;
20080;SDS011;10200;49.232;9.222;2022-12-24T05:51:18;9.13;;;2.60;;
20080;SDS011;10200;49.232;9.222;2022-12-24T05:53:46;9.13;;;2.50;;
20080;SDS011;10200;49.232;9.222;2022-12-24T05:56:17;11.60;;;2.77;;
20080;SDS011;10200;49.232;9.222;2022-12-24T05:58:45;15.33;;;3.00;;
20080;SDS011;10200;49.232;9.222;2022-12-24T06:01:11;9.67;;;2.10;;
20080;SDS011;10200;49.232;9.222;2022-12-24T06:03:37;20.37;;;2.97;;
20080;SDS011;10200;49.232;9.222;2022-12-24T06:06:07;9.70;;;2.47;;
20080;SDS011;10200;49.232;9.222;2022-12-24T06:08:33;17.63;;;2.77;;
20080;SDS011;10200;49.232;9.222;2022-12-24T06:11:01;10.30;;;2.47;;
20080;SDS011;10200;49.232;9.222;2022-12-24T06:13:28;14.70;;;3.40;;
20080;SDS011;10200;49.232;9.222;2022-12-24T06:15:58;12.60;;;2.60;;
20080;SDS011;10200;49.232;9.222;2022-12-24T06:18:25;9.83;;;2.60;;
20080;SDS011;10200;49.232;9.222;2022-12-24T06:20:52;10.50;;;2.80;;
20080;SDS011;10200;49.232;9.222;2022-12-24T06:23:19;19.40;;;3.10;;
20080;SDS011;10200;49.232;9.222;2022-12-24T06:25:46;12.47;;;2.63;;
20080;SDS011;10200;49.232;9.222;2022-12-24T06:28:12;18.23;;;3.33;;
20080;SDS011;10200;49.232;9.222;2022-12-24T06:30:38;8.20;;;2.80;;
20080;SDS011;10200;49.232;9.222;2022-12-24T06:33:04;14.30;;;2.63;;
20080;SDS011;10200;49.232;9.222;2022-12-24T06:35:30;13.77;;;2.97;;
20080;SDS011;10200;49.232;9.222;2022-12-24T06:37:56;8.50;;;2.27;;
20080;SDS011;10200;49.232;9.222;2022-12-24T06:40:21;14.53;;;3.43;;
20080;SDS011;10200;49.232;9.222;2022-12-24T06:42:47;11.97;;;2.97;;
20080;SDS011;10200;49.232;9.222;2022-12-24T06:45:12;8.63;;;2.07;;
20080;SDS011;10200;49.232;9.222;2022-12-24T06:47:38;11.60;;;3.07;;
20080;SDS011;10200;49.232;9.222;2022-12-24T06:50:04;6.77;;;2.13;;
20080;SDS011;10200;49.232;9.222;2022-12-24T06:52:30;11.53;;;2.70;;
20080;SDS011;10200;49.232;9.222;2022-12-24T06:54:55;19.00;;;4.23;;
20080;SDS011;10200;49.232;9.222;2022-12-24T06:57:22;10.43;;;2.87;;
20080;SDS011;10200;49.232;9.222;2022-12-24T06:59:48;10.87;;;2.97;;
20080;SDS011;10200;49.232;9.222;2022-12-24T07:02:13;9.27;;;2.03;;
20080;SDS011;10200;49.232;9.222;2022-12-24T07:04:39;16.30;;;2.70;;
20080;SDS011;10200;49.232;9.222;2022-12-24T07:07:04;14.70;;;2.20;;
20080;SDS011;10200;49.232;9.222;2022-12-24T07:09:30;14.60;;;2.83;;
20080;SDS011;10200;49.232;9.222;2022-12-24T07:11:55;8.70;;;2.70;;
20080;SDS011;10200;49.232;9.222;2022-12-24T07:14:21;9.30;;;2.10;;
20080;SDS011;10200;49.232;9.222;2022-12-24T07:16:47;12.30;;;2.67;;
20080;SDS011;10200;49.232;9.222;2022-12-24T07:19:13;12.30;;;2.50;;
20080;SDS011;10200;49.232;9.222;2022-12-24T07:21:39;6.97;;;2.13;;
20080;SDS011;10200;49.232;9.222;2022-12-24T07:24:04;8.40;;;2.90;;
20080;SDS011;10200;49.232;9.222;2022-12-24T07:26:30;9.10;;;2.93;;
20080;SDS011;10200;49.232;9.222;2022-12-24T07:28:56;14.33;;;3.10;;
20080;SDS011;10200;49.232;9.222;2022-12-24T07:31:22;10.60;;;2.80;;
20080;SDS011;10200;49.232;9.222;2022-12-24T07:33:47;14.77;;;2.90;;
20080;SDS011;10200;49.232;9.222;2022-12-24T07:36:16;12.40;;;3.03;;
20080;SDS011;10200;49.232;9.222;2022-12-24T07:38:43;9.77;;;3.27;;
20080;SDS011;10200;49.232;9.222;2022-12-24T07:41:09;7.97;;;2.97;;
20080;SDS011;10200;49.232;9.222;2022-12-24T07:43:35;13.07;;;3.27;;
20080;SDS011;10200;49.232;9.222;2022-12-24T07:46:00;10.80;;;2.93;;
20080;SDS011;10200;49.232;9.222;2022-12-24T07:48:27;10.87;;;3.37;;
20080;SDS011;10200;49.232;9.222;2022-12-24T07:50:53;5.53;;;2.00;;
20080;SDS011;10200;49.232;9.222;2022-12-24T07:53:20;10.00;;;2.53;;
20080;SDS011;10200;49.232;9.222;2022-12-24T07:55:45;8.73;;;2.50;;
20080;SDS011;10200;49.232;9.222;2022-12-24T07:58:11;17.83;;;3.23;;
20080;SDS011;10200;49.232;9.222;2022-12-24T08:00:36;16.33;;;8.20;;
20080;SDS011;10200;49.232;9.222;2022-12-24T08:03:02;16.13;;;6.77;;
20080;SDS011;10200;49.232;9.222;2022-12-24T08:05:28;17.40;;;9.00;;
20080;SDS011;10200;49.232;9.222;2022-12-24T08:08:00;20.30;;;7.30;;
20080;SDS011;10200;49.232;9.222;2022-12-24T08:10:26;18.70;;;6.03;;
20080;SDS011;10200;49.232;9.222;2022-12-24T08:12:51;13.63;;;3.63;;
20080;SDS011;10200;49.232;9.222;2022-12-24T08:15:17;12.97;;;4.60;;
20080;SDS011;10200;49.232;9.222;2022-12-24T08:17:43;17.73;;;5.87;;
20080;SDS011;10200;49.232;9.222;2022-12-24T08:20:09;13.07;;;4.17;;
20080;SDS011;10200;49.232;9.222;2022-12-24T08:22:35;13.27;;;4.60;;
20080;SDS011;10200;49.232;9.222;2022-12-24T08:25:01;15.63;;;4.50;;
20080;SDS011;10200;49.232;9.222;2022-12-24T08:27:26;21.97;;;4.47;;
20080;SDS011;10200;49.232;9.222;2022-12-24T08:29:52;12.60;;;3.30;;
20080;SDS011;10200;49.232;9.222;2022-12-24T08:32:17;17.80;;;3.00;;
20080;SDS011;10200;49.232;9.222;2022-12-24T08:34:43;11.23;;;3.10;;
20080;SDS011;10200;49.232;9.222;2022-12-24T08:37:08;12.43;;;3.50;;
20080;SDS011;10200;49.232;9.222;2022-12-24T08:39:34;11.00;;;3.40;;
20080;SDS011;10200;49.232;9.222;2022-12-24T08:41:59;9.10;;;2.83;;
20080;SDS011;10200;49.232;9.222;2022-12-24T08:44:25;11.57;;;3.00;;
20080;SDS011;10200;49.232;9.222;2022-12-24T08:46:51;12.63;;;2.97;;
20080;SDS011;10200;49.232;9.222;2022-12-24T08:49:16;15.23;;;2.80;;
20080;SDS011;10200;49.232;9.222;2022-12-24T08:51:42;10.43;;;3.07;;
20080;SDS011;10200;49.232;9.222;2022-12-24T08:54:07;11.97;;;2.93;;
20080;SDS011;10200;49.232;9.222;2022-12-24T08:56:33;11.60;;;3.30;;
20080;SDS011;10200;49.232;9.222;2022-12-24T08:58:59;12.63;;;2.90;;
20080;SDS011;10200;49.232;9.222;2022-12-24T09:01:25;12.07;;;3.23;;
20080;SDS011;10200;49.232;9.222;2022-12-24T09:03:50;9.33;;;2.93;;
20080;SDS011;10200;49.232;9.222;2022-12-24T09:06:16;8.63;;;2.23;;
20080;SDS011;10200;49.232;9.222;2022-12-24T09:08:42;12.37;;;3.37;;
20080;SDS011;10200;49.232;9.222;2022-12-24T09:11:09;10.50;;;2.50;;
20080;SDS011;10200;49.232;9.222;2022-12-24T09:13:39;16.90;;;2.63;;
20080;SDS011;10200;49.232;9.222;2022-12-24T09:16:06;8.50;;;2.43;;
20080;SDS011;10200;49.232;9.222;2022-12-24T09:18:32;15.80;;;3.40;;
20080;SDS011;10200;49.232;9.222;2022-12-24T09:20:59;13.13;;;2.87;;
20080;SDS011;10200;49.232;9.222;2022-12-24T09:23:26;14.33;;;3.13;;
20080;SDS011;10200;49.232;9.222;2022-12-24T09:25:52;12.03;;;2.90;;
20080;SDS011;10200;49.232;9.222;2022-12-24T09:28:18;9.63;;;2.53;;
20080;SDS011;10200;49.232;9.222;2022-12-24T09:30:44;14.20;;;3.37;;
20080;SDS011;10200;49.232;9.222;2022-12-24T09:33:09;12.13;;;2.70;;
20080;SDS011;10200;49.232;9.222;2022-12-24T09:35:36;6.60;;;1.90;;
20080;SDS011;10200;49.232;9.222;2022-12-24T09:38:02;5.40;;;2.13;;
20080;SDS011;10200;49.232;9.222;2022-12-24T09:40:32;8.60;;;2.37;;
20080;SDS011;10200;49.232;9.222;2022-12-24T09:43:03;10.00;;;2.90;;
20080;SDS011;10200;49.232;9.222;2022-12-24T09:45:39;12.80;;;2.87;;
20080;SDS011;10200;49.232;9.222;2022-12-24T09:48:23;8.47;;;2.33;;
20080;SDS011;10200;49.232;9.222;2022-12-24T09:51:11;13.87;;;2.10;;
20080;SDS011;10200;49.232;9.222;2022-12-24T09:53:53;9.63;;;2.70;;
20080;SDS011;10200;49.232;9.222;2022-12-24T09:56:20;18.07;;;3.23;;
20080;SDS011;10200;49.232;9.222;2022-12-24T09:58:58;13.83;;;3.50;;
20080;SDS011;10200;49.232;9.222;2022-12-24T10:01:29;9.07;;;2.23;;
20080;SDS011;10200;49.232;9.222;2022-12-24T10:03:57;15.60;;;3.53;;
20080;SDS011;10200;49.232;9.222;2022-12-24T10:15:26;12.67;;;2.33;;
20080;SDS011;10200;49.232;9.222;2022-12-24T10:25:51;19.07;;;3.03;;
20080;SDS011;10200;49.232;9.222;2022-12-24T10:28:22;8.83;;;2.50;;
20080;SDS011;10200;49.232;9.222;2022-12-24T10:30:57;11.87;;;3.10;;
20080;SDS011;10200;49.232;9.222;2022-12-24T10:33:31;16.17;;;3.07;;
20080;SDS011;10200;49.232;9.222;2022-12-24T10:36:04;10.63;;;2.93;;
20080;SDS011;10200;49.232;9.222;2022-12-24T10:38:35;10.50;;;2.50;;
20080;SDS011;10200;49.232;9.222;2022-12-24T10:41:01;8.27;;;2.33;;
20080;SDS011;10200;49.232;9.222;2022-12-24T10:43:27;14.93;;;3.23;;
20080;SDS011;10200;49.232;9.222;2022-12-24T10:45:54;9.77;;;2.67;;
20080;SDS011;10200;49.232;9.222;2022-12-24T10:48:44;14.47;;;2.63;;
20080;SDS011;10200;49.232;9.222;2022-12-24T10:51:28;11.27;;;3.20;;
20080;SDS011;10200;49.232;9.222;2022-12-24T10:54:15;13.93;;;2.73;;
20080;SDS011;10200;49.232;9.222;2022-12-24T10:56:49;11.20;;;2.80;;
20080;SDS011;10200;49.232;9.222;2022-12-24T10:59:29;13.03;;;2.53;;
20080;SDS011;10200;49.232;9.222;2022-12-24T11:02:01;13.40;;;3.27;;
20080;SDS011;10200;49.232;9.222;2022-12-24T11:04:28;9.80;;;2.70;;
20080;SDS011;10200;49.232;9.222;2022-12-24T11:06:56;13.37;;;2.47;;
20080;SDS011;10200;49.232;9.222;2022-12-24T11:11:59;14.93;;;2.60;;
20080;SDS011;10200;49.232;9.222;2022-12-24T11:14:31;11.20;;;2.17;;
20080;SDS011;10200;49.232;9.222;2022-12-24T11:16:59;9.63;;;2.10;;
20080;SDS011;10200;49.232;9.222;2022-12-24T11:19:29;8.80;;;3.27;;
20080;SDS011;10200;49.232;9.222;2022-12-24T11:22:00;9.97;;;2.43;;
20080;SDS011;10200;49.232;9.222;2022-12-24T11:24:32;13.57;;;2.70;;
20080;SDS011;10200;49.232;9.222;2022-12-24T11:29:49;7.50;;;2.60;;
20080;SDS011;10200;49.232;9.222;2022-12-24T11:32:19;8.07;;;3.03;;
20080;SDS011;10200;49.232;9.222;2022-12-24T11:34:45;14.37;;;2.73;;
20080;SDS011;10200;49.232;9.222;2022-12-24T11:37:21;29.20;;;6.37;;
20080;SDS011;10200;49.232;9.222;2022-12-24T11:39:59;15.73;;;6.10;;
20080;SDS011;10200;49.232;9.222;2022-12-24T11:44:51;19.67;;;4.50;;
20080;SDS011;10200;49.232;9.222;2022-12-24T11:47:34;18.60;;;3.17;;
20080;SDS011;10200;49.232;9.222;2022-12-24T11:50:21;9.63;;;3.30;;
20080;SDS011;10200;49.232;9.222;2022-12-24T11:52:49;12.53;;;2.73;;
20080;SDS011;10200;49.232;9.222;2022-12-24T12:00:58;11.97;;;3.13;;
20080;SDS011;10200;49.232;9.222;2022-12-24T12:03:38;11.27;;;2.73;;
20080;SDS011;10200;49.232;9.222;2022-12-24T12:06:25;9.03;;;2.50;;
20080;SDS011;10200;49.232;9.222;2022-12-24T12:08:56;13.57;;;2.67;;
20080;SDS011;10200;49.232;9.222;2022-12-24T12:11:25;6.33;;;2.50;;
20080;SDS011;10200;49.232;9.222;2022-12-24T12:13:52;5.47;;;2.00;;
20080;SDS011;10200;49.232;9.222;2022-12-24T12:16:25;10.17;;;3.00;;
20080;SDS011;10200;49.232;9.222;2022-12-24T12:19:16;12.07;;;2.77;;
20080;SDS011;10200;49.232;9.222;2022-12-24T12:21:45;5.27;;;2.30;;
20080;SDS011;10200;49.232;9.222;2022-12-24T12:24:27;9.17;;;2.80;;
20080;SDS011;10200;49.232;9.222;2022-12-24T12:27:10;8.20;;;2.20;;
20080;SDS011;10200;49.232;9.222;2022-12-24T12:29:44;12.57;;;3.00;;
20080;SDS011;10200;49.232;9.222;2022-12-24T12:32:26;9.47;;;2.87;;
20080;SDS011;10200;49.232;9.222;2022-12-24T12:35:03;11.60;;;2.10;;
20080;SDS011;10200;49.232;9.222;2022-12-24T12:37:40;18.87;;;3.60;;
20080;SDS011;10200;49.232;9.222;2022-12-24T12:40:13;11.47;;;2.30;;
20080;SDS011;10200;49.232;9.222;2022-12-24T12:42:42;11.57;;;2.40;;
20080;SDS011;10200;49.232;9.222;2022-12-24T12:51:16;13.03;;;2.90;;
20080;SDS011;10200;49.232;9.222;2022-12-24T12:56:50;9.97;;;2.53;;
20080;SDS011;10200;49.232;9.222;2022-12-24T12:59:21;11.17;;;3.00;;
20080;SDS011;10200;49.232;9.222;2022-12-24T13:05:09;10.83;;;2.30;;
20080;SDS011;10200;49.232;9.222;2022-12-24T13:07:50;10.50;;;2.83;;
20080;SDS011;10200;49.232;9.222;2022-12-24T13:21:19;8.83;;;3.40;;
20080;SDS011;10200;49.232;9.222;2022-12-24T13:23:47;15.90;;;2.70;;
20080;SDS011;10200;49.232;9.222;2022-12-24T13:26:13;12.50;;;3.03;;
20080;SDS011;10200;49.232;9.222;2022-12-24T13:28:40;13.13;;;2.27;;
20080;SDS011;10200;49.232;9.222;2022-12-24T13:36:12;8.23;;;2.50;;
20080;SDS011;10200;49.232;9.222;2022-12-24T13:49:38;12.40;;;2.77;;
20080;SDS011;10200;49.232;9.222;2022-12-24T13:52:07;11.03;;;2.73;;
20080;SDS011;10200;49.232;9.222;2022-12-24T13:55:03;11.53;;;2.60;;
20080;SDS011;10200;49.232;9.222;2022-12-24T13:57:45;10.93;;;2.33;;
20080;SDS011;10200;49.232;9.222;2022-12-24T14:08:04;6.33;;;2.57;;
20080;SDS011;10200;49.232;9.222;2022-12-24T14:11:17;7.50;;;2.37;;
20080;SDS011;10200;49.232;9.222;2022-12-24T14:16:16;5.37;;;2.90;;
20080;SDS011;10200;49.232;9.222;2022-12-24T14:24:18;12.53;;;2.33;;
20080;SDS011;10200;49.232;9.222;2022-12-24T14:26:48;10.93;;;2.77;;
20080;SDS011;10200;49.232;9.222;2022-12-24T14:29:23;9.93;;;2.47;;
20080;SDS011;10200;49.232;9.222;2022-12-24T14:31:58;6.00;;;2.43;;
20080;SDS011;10200;49.232;9.222;2022-12-24T14:34:28;13.60;;;3.33;;
20080;SDS011;10200;49.232;9.222;2022-12-24T14:36:54;6.90;;;2.30;;
20080;SDS011;10200;49.232;9.222;2022-12-24T14:39:30;5.57;;;2.47;;
20080;SDS011;10200;49.232;9.222;2022-12-24T14:42:05;9.27;;;2.37;;
20080;SDS011;10200;49.232;9.222;2022-12-24T14:45:24;10.30;;;2.73;;
20080;SDS011;10200;49.232;9.222;2022-12-24T14:55:50;5.70;;;2.00;;
20080;SDS011;10200;49.232;9.222;2022-12-24T14:58:17;11.80;;;3.07;;
20080;SDS011;10200;49.232;9.222;2022-12-24T15:00:46;15.93;;;2.77;;
20080;SDS011;10200;49.232;9.222;2022-12-24T15:03:12;7.90;;;2.70;;
20080;SDS011;10200;49.232;9.222;2022-12-24T15:05:39;10.83;;;2.60;;
20080;SDS011;10200;49.232;9.222;2022-12-24T15:08:16;11.10;;;3.03;;
20080;SDS011;10200;49.232;9.222;2022-12-24T15:10:51;6.03;;;2.77;;
20080;SDS011;10200;49.232;9.222;2022-12-24T15:15:45;7.67;;;2.30;;
20080;SDS011;10200;49.232;9.222;2022-12-24T15:18:17;11.97;;;3.03;;
20080;SDS011;10200;49.232;9.222;2022-12-24T15:20:46;12.43;;;2.93;;
20080;SDS011;10200;49.232;9.222;2022-12-24T15:23:24;8.50;;;2.63;;
20080;SDS011;10200;49.232;9.222;2022-12-24T15:28:40;10.13;;;3.73;;
20080;SDS011;10200;49.232;9.222;2022-12-24T15:31:07;8.50;;;3.70;;
20080;SDS011;10200;49.232;9.222;2022-12-24T15:33:37;10.50;;;3.63;;
20080;SDS011;10200;49.232;9.222;2022-12-24T15:36:03;11.13;;;3.30;;
20080;SDS011;10200;49.232;9.222;2022-12-24T15:38:32;9.23;;;3.43;;
20080;SDS011;10200;49.232;9.222;2022-12-24T15:41:01;7.90;;;2.60;;
20080;SDS011;10200;49.232;9.222;2022-12-24T15:43:28;9.07;;;2.90;;
20080;SDS011;10200;49.232;9.222;2022-12-24T15:45:55;9.37;;;3.10;;
20080;SDS011;10200;49.232;9.222;2022-12-24T15:48:22;11.90;;;3.20;;
20080;SDS011;10200;49.232;9.222;2022-12-24T15:50:56;10.57;;;3.00;;
20080;SDS011;10200;49.232;9.222;2022-12-24T15:53:34;10.07;;;3.53;;
20080;SDS011;10200;49.232;9.222;2022-12-24T15:58:42;10.50;;;3.27;;
20080;SDS011;10200;49.232;9.222;2022-12-24T16:03:38;8.97;;;3.47;;
20080;SDS011;10200;49.232;9.222;2022-12-24T16:06:08;9.00;;;4.73;;
20080;SDS011;10200;49.232;9.222;2022-12-24T16:08:38;19.63;;;8.90;;
20080;SDS011;10200;49.232;9.222;2022-12-24T16:11:15;28.73;;;13.83;;
20080;SDS011;10200;49.232;9.222;2022-12-24T16:16:15;21.77;;;12.10;;
20080;SDS011;10200;49.232;9.222;2022-12-24T16:21:25;25.30;;;12.27;;
20080;SDS011;10200;49.232;9.222;2022-12-24T16:23:55;22.60;;;11.40;;
20080;SDS011;10200;49.232;9.222;2022-12-24T16:26:22;25.27;;;10.90;;
20080;SDS011;10200;49.232;9.222;2022-12-24T16:28:48;27.97;;;13.23;;
20080;SDS011;10200;49.232;9.222;2022-12-24T16:31:15;26.37;;;13.70;;
20080;SDS011;10200;49.232;9.222;2022-12-24T16:33:52;25.83;;;15.13;;
20080;SDS011;10200;49.232;9.222;2022-12-24T16:36:21;33.40;;;14.57;;
20080;SDS011;10200;49.232;9.222;2022-12-24T16:38:47;26.37;;;13.40;;
20080;SDS011;10200;49.232;9.222;2022-12-24T16:41:31;29.03;;;17.47;;
20080;SDS011;10200;49.232;9.222;2022-12-24T16:44:16;30.57;;;18.23;;
20080;SDS011;10200;49.232;9.222;2022-12-24T16:46:42;25.77;;;15.77;;
20080;SDS011;10200;49.232;9.222;2022-12-24T16:49:10;22.83;;;11.43;;
20080;SDS011;10200;49.232;9.222;2022-12-24T16:51:40;18.70;;;10.57;;
20080;SDS011;10200;49.232;9.222;2022-12-24T16:54:06;18.77;;;9.73;;
20080;SDS011;10200;49.232;9.222;2022-12-24T16:56:34;19.00;;;9.23;;
20080;SDS011;10200;49.232;9.222;2022-12-24T16:59:00;20.63;;;9.40;;
20080;SDS011;10200;49.232;9.222;2022-12-24T17:01:25;16.77;;;8.33;;
20080;SDS011;10200;49.232;9.222;2022-12-24T17:03:51;18.27;;;9.20;;
20080;SDS011;10200;49.232;9.222;2022-12-24T17:06:17;14.60;;;8.20;;
20080;SDS011;10200;49.232;9.222;2022-12-24T17:08:42;15.13;;;7.63;;
20080;SDS011;10200;49.232;9.222;2022-12-24T17:11:08;21.17;;;8.10;;